DAAY

Mecheria Airport

Airport
ICAO code
DAAY
Summary
ICAO Region
AFI
ICAO Territory
Location

, Naama

Serving
Mecheria
Elevation
3855 ft
Coordinates
33° 32' 9" N , 0° 14' 32" W
Metar
DAAY 041100Z 28008KT 8000 SCT030 11/01 Q1025

Runways

Designator Length Width Surface Rops
17/35 2876 30 ASP No/No
6/24 3591 46 ASP No/No

Airport map

Aerial View

SKYbrary Partners:

Safety knowledge contributed by: